M I D A S
Marine Information and Data Acquisition System
Tripno 1984 of the Zeeleeuw from 2010-11-08 07:17:38 to 2010-11-08 14:02:37
Back to CruiseResearch ActivitiesStationsMapUnderway DataData graphs

EquipmentUnitsComment
TimeDGPSUTC
LatitudeDGPSDM.mWGS84
LongitudeDGPSDM.mWGS84
HeadingGyrodeg 
SOGDGPSknotsSpeed over ground
COGDGPSdegCourse over ground
DepthEcho soundermeters200 kHz
Missing or incorrect values are displayed as -999
Navigation data collected by the RV Zeeleeuw from 2010-11-08 07:08:11 to 2010-11-08 14:30:11
Time Latitude Longitude Heading SOG COG Depth
2010-11-08 07:09:14 51°13.663 2°55.959 121.8 -999 111 6.4
2010-11-08 07:10:12 51°13.664 2°55.959 121.8 0.1 321 6.4
2010-11-08 07:11:13 51°13.664 2°55.959 121.8 -999 190 6.4
2010-11-08 07:12:12 51°13.664 2°55.959 121.8 -999 67 6.4
2010-11-08 07:13:13 51°13.665 2°55.958 121.8 -999 26 6.4
2010-11-08 07:14:13 51°13.664 2°55.959 121.8 -999 207 6.3
2010-11-08 07:15:13 51°13.664 2°55.959 121.8 0.1 50 6.4
2010-11-08 07:16:13 51°13.664 2°55.958 121.8 -999 341 6.4
2010-11-08 07:17:13 51°13.664 2°55.959 122 -999 306 6.4
2010-11-08 07:18:13 51°13.664 2°55.96 123.4 -999 313 6.3
2010-11-08 07:19:12 51°13.664 2°55.96 123.4 0.1 349 6.3
2010-11-08 07:20:13 51°13.663 2°55.961 125 -999 71 6.3
2010-11-08 07:21:13 51°13.663 2°55.961 124.9 -999 323 6.3
2010-11-08 07:22:13 51°13.662 2°55.961 124.9 0.1 316 6.3
2010-11-08 07:23:12 51°13.662 2°55.961 125.1 -999 307 6.3
2010-11-08 07:24:12 51°13.662 2°55.961 125.4 -999 319 6.3
2010-11-08 07:25:11 51°13.662 2°55.961 126.8 -999 104 6.3
2010-11-08 07:26:11 51°13.662 2°55.961 124.9 -999 169 6.3
2010-11-08 07:27:11 51°13.661 2°55.961 114.6 -999 186 6.3
2010-11-08 07:28:11 51°13.661 2°55.958 107.4 0.9 293 6.4
2010-11-08 07:29:15 51°13.682 2°55.871 102.9 4.8 286 -999
2010-11-08 07:30:15 51°13.687 2°55.749 77.1 3.1 265 11
2010-11-08 07:31:13 51°13.705 2°55.736 11 2.6 359 11.3
2010-11-08 07:32:13 51°13.785 2°55.684 332.3 7.5 331 9.4
2010-11-08 07:33:11 51°13.917 2°55.579 335.6 9.9 335 9.2
2010-11-08 07:34:12 51°14.067 2°55.458 331.7 10.1 331 8.5
2010-11-08 07:35:15 51°14.229 2°55.323 329.3 10.7 329 -999
2010-11-08 07:36:15 51°14.385 2°55.168 328.4 11.4 330 8.5
2010-11-08 07:37:12 51°14.546 2°55.013 325.4 12.2 321 9.7
2010-11-08 07:38:11 51°14.641 2°54.729 280.6 12.8 273 10
2010-11-08 07:39:11 51°14.561 2°54.417 232.9 13.4 232 8
2010-11-08 07:40:11 51°14.419 2°54.14 229.4 13.5 233 5.7
2010-11-08 07:41:11 51°14.294 2°53.839 238.2 13.7 240 7.5
2010-11-08 07:42:11 51°14.172 2°53.527 236.3 14 238 7.5
2010-11-08 07:43:11 51°14.048 2°53.212 236.3 14.1 237 7.8
2010-11-08 07:44:11 51°13.918 2°52.897 235.6 14.3 237 8
2010-11-08 07:45:12 51°13.779 2°52.581 232.5 14.3 234 8.3
2010-11-08 07:46:11 51°13.666 2°52.253 242.2 14.5 243 8.3
2010-11-08 07:47:11 51°13.555 2°51.912 241.8 14.3 245 8.4
2010-11-08 07:48:12 51°13.49 2°51.623 245.3 8.6 246 9.1
2010-11-08 07:49:11 51°13.445 2°51.475 243 4.3 251 9.2
2010-11-08 07:50:11 51°13.434 2°51.428 284.7 0.6 227 -999
2010-11-08 07:51:15 51°13.427 2°51.405 293.2 1.1 253 -999
2010-11-08 07:52:14 51°13.424 2°51.376 293.3 1.2 263 9.3
2010-11-08 07:53:11 51°13.423 2°51.344 286.4 1.3 267 9.4
2010-11-08 07:54:12 51°13.423 2°51.307 281.4 1.5 270 9.3
2010-11-08 07:55:11 51°13.422 2°51.267 273 1.6 267 9.3
2010-11-08 07:56:11 51°13.415 2°51.206 242.9 3 251 9.4
2010-11-08 07:57:12 51°13.385 2°51.13 204 3.6 223 9.4
2010-11-08 07:58:11 51°13.335 2°51.094 160.6 3.3 188 9.3
2010-11-08 07:59:11 51°13.263 2°51.093 163.9 5.2 184 9.3
2010-11-08 08:00:12 51°13.179 2°51.042 196.8 5.1 212 9.1
2010-11-08 08:01:11 51°13.124 2°50.967 209.8 3.9 228 9.1
2010-11-08 08:02:11 51°13.088 2°50.894 212.7 3.3 233 9.1
2010-11-08 08:03:12 51°13.052 2°50.825 207.7 3.4 228 9.1
2010-11-08 08:04:11 51°13.012 2°50.761 201.6 3.4 223 9
2010-11-08 08:05:11 51°12.968 2°50.705 195.3 3.5 218 8.9
2010-11-08 08:06:12 51°12.922 2°50.642 204.4 3.7 223 8.9
2010-11-08 08:07:12 51°12.88 2°50.571 213.6 3.7 229 8.8
2010-11-08 08:08:11 51°12.841 2°50.497 217.6 3.6 229 8.6
2010-11-08 08:09:11 51°12.804 2°50.423 218.8 3.6 233 8.7
2010-11-08 08:10:11 51°12.766 2°50.351 217 3.6 228 8.5
2010-11-08 08:11:12 51°12.728 2°50.278 215.9 3.5 227 8.5
2010-11-08 08:12:12 51°12.691 2°50.208 215.3 3.5 232 8.2
2010-11-08 08:13:11 51°12.655 2°50.137 220.4 3.5 234 8.3
2010-11-08 08:14:11 51°12.621 2°50.06 227 3.6 236 8.3
2010-11-08 08:15:12 51°12.589 2°49.979 229.7 3.5 237 8.2
2010-11-08 08:16:12 51°12.558 2°49.899 230.9 3.5 235 8.2
2010-11-08 08:17:11 51°12.529 2°49.818 230.8 3.6 239 8.2
2010-11-08 08:18:11 51°12.499 2°49.737 231 3.5 237 8.1
2010-11-08 08:19:12 51°12.467 2°49.654 229.6 3.6 240 8.1
2010-11-08 08:20:11 51°12.437 2°49.574 229.6 3.6 240 6
2010-11-08 08:21:11 51°12.405 2°49.493 229.7 3.6 238 8.2
2010-11-08 08:22:12 51°12.374 2°49.41 229.6 3.6 240 8.1
2010-11-08 08:23:11 51°12.344 2°49.33 229.9 3.5 239 8.2
2010-11-08 08:24:11 51°12.313 2°49.249 229.9 3.5 239 8.2
2010-11-08 08:25:11 51°12.283 2°49.168 229.5 3.5 242 8.2
2010-11-08 08:26:11 51°12.252 2°49.088 229.3 3.5 237 8.1
2010-11-08 08:27:12 51°12.22 2°49.006 229 3.6 239 6
2010-11-08 08:28:11 51°12.189 2°48.927 228.7 3.6 239 8.1
2010-11-08 08:29:12 51°12.158 2°48.842 236.4 3.6 247 8.2
2010-11-08 08:30:11 51°12.146 2°48.755 265.2 3.4 266 8.3
2010-11-08 08:31:11 51°12.148 2°48.668 287.1 3.3 281 8.5
2010-11-08 08:32:12 51°12.17 2°48.581 318.1 3.9 307 9
2010-11-08 08:33:11 51°12.216 2°48.533 2.3 3 347 9.3
2010-11-08 08:34:11 51°12.255 2°48.53 28.8 1.6 5 9.6
2010-11-08 08:35:12 51°12.275 2°48.531 42.2 0.9 4 10.1
2010-11-08 08:36:12 51°12.286 2°48.529 52.3 0.7 334 9.8
2010-11-08 08:37:12 51°12.291 2°48.522 58.4 0.3 354 10
2010-11-08 08:38:11 51°12.33 2°48.518 350.4 4.3 327 10.3
2010-11-08 08:39:11 51°12.349 2°48.368 262.2 7.8 256 10.8
2010-11-08 08:40:11 51°12.271 2°48.148 231.5 11.5 236 10.8
2010-11-08 08:41:11 51°12.141 2°47.861 232.4 14.4 236 10.7
2010-11-08 08:42:12 51°12.012 2°47.528 235.2 14.6 239 10.3
2010-11-08 08:43:11 51°11.888 2°47.208 235.5 14.4 237 10.1
2010-11-08 08:44:12 51°11.76 2°46.881 234.5 14.3 237 9.9
2010-11-08 08:45:11 51°11.637 2°46.566 235.3 14.2 240 9.5
2010-11-08 08:46:11 51°11.513 2°46.25 234.8 14 238 9.2
2010-11-08 08:47:11 51°11.39 2°45.936 234.8 14 238 8.9
2010-11-08 08:48:11 51°11.265 2°45.626 234.1 13.9 237 8.4
2010-11-08 08:49:11 51°11.142 2°45.318 234.5 13.7 238 6
2010-11-08 08:50:12 51°11.016 2°45.008 233.7 13.7 236 7.7
2010-11-08 08:51:11 51°10.898 2°44.707 236.6 13.6 240 7.4
2010-11-08 08:52:11 51°10.779 2°44.404 236.4 13.3 238 7.2
2010-11-08 08:53:11 51°10.664 2°44.104 235.5 13.3 239 7.1
2010-11-08 08:54:11 51°10.546 2°43.806 236 13.3 237 7.1
2010-11-08 08:55:12 51°10.427 2°43.503 236.2 13.3 238 7.2
2010-11-08 08:56:11 51°10.312 2°43.207 236.2 13.3 239 7.2
2010-11-08 08:57:11 51°10.208 2°42.969 224.1 7.7 227 5.8
2010-11-08 08:58:12 51°10.159 2°42.863 247.9 3 250 7.9
2010-11-08 08:59:12 51°10.155 2°42.825 272.5 0.7 271 7.8
2010-11-08 09:00:12 51°10.156 2°42.804 281.8 1 280 7.7
2010-11-08 09:01:12 51°10.158 2°42.781 276 0.8 270 7.8
2010-11-08 09:02:12 51°10.159 2°42.756 265.1 1.2 277 7.9
2010-11-08 09:03:12 51°10.161 2°42.731 257 1 278 7.7
2010-11-08 09:04:12 51°10.161 2°42.706 254 1 279 7.8
2010-11-08 09:05:11 51°10.162 2°42.681 251.4 1.1 286 7.8
2010-11-08 09:06:11 51°10.162 2°42.653 253.9 1.7 264 7.8
2010-11-08 09:07:11 51°10.164 2°42.574 286.8 3.9 283 7.8
2010-11-08 09:08:12 51°10.208 2°42.495 344.8 4.1 337 7.6
2010-11-08 09:09:11 51°10.274 2°42.484 16.8 3.6 10 7.8
2010-11-08 09:10:11 51°10.328 2°42.512 35.3 3.3 26 7.9
2010-11-08 09:11:12 51°10.375 2°42.551 34.6 3.3 23 8.1
2010-11-08 09:12:12 51°10.42 2°42.585 39.7 3 28 8.3
2010-11-08 09:13:12 51°10.462 2°42.629 44.7 3.1 39 8.5
2010-11-08 09:14:11 51°10.495 2°42.687 63.1 2.9 58 8.6
2010-11-08 09:15:12 51°10.511 2°42.76 79.3 2.8 77 8.5
2010-11-08 09:16:12 51°10.512 2°42.834 89.8 2.8 94 8.5
2010-11-08 09:17:11 51°10.504 2°42.906 96.3 2.8 102 8.3
2010-11-08 09:18:11 51°10.493 2°42.979 98.5 2.9 105 8.2
2010-11-08 09:19:12 51°10.483 2°43.056 96.6 2.8 99 8.1
2010-11-08 09:20:12 51°10.474 2°43.13 95.4 2.9 99 6
2010-11-08 09:21:12 51°10.463 2°43.205 95.6 2.9 101 8
2010-11-08 09:22:11 51°10.455 2°43.281 94.6 3 99 7.9
2010-11-08 09:23:12 51°10.446 2°43.361 95.2 3 100 7.9
2010-11-08 09:24:12 51°10.437 2°43.439 94.7 3 99 7.9
2010-11-08 09:25:12 51°10.429 2°43.517 94.3 2.9 97 5.9
2010-11-08 09:26:12 51°10.422 2°43.597 93.7 3.1 94 8.1
2010-11-08 09:27:12 51°10.414 2°43.677 94 3 97 8.1
2010-11-08 09:28:11 51°10.409 2°43.756 94.5 3.1 96 8.3
2010-11-08 09:29:12 51°10.403 2°43.838 94.8 3 96 8.3
2010-11-08 09:30:11 51°10.397 2°43.917 94.4 3 97 8.3
2010-11-08 09:31:12 51°10.392 2°43.997 93.5 3.1 92 6.1
2010-11-08 09:32:11 51°10.388 2°44.075 90.6 3.1 90 8.2
2010-11-08 09:33:11 51°10.396 2°44.156 76.1 3.1 72 8.2
2010-11-08 09:34:12 51°10.419 2°44.235 63.9 2.9 61 8.3
2010-11-08 09:35:12 51°10.448 2°44.312 62.5 3.4 58 8.2
2010-11-08 09:36:12 51°10.476 2°44.387 62.2 3.4 58 8.2
2010-11-08 09:37:12 51°10.507 2°44.461 61.1 3.3 55 8.2
2010-11-08 09:38:12 51°10.539 2°44.534 60.3 3.4 54 8.2
2010-11-08 09:39:12 51°10.57 2°44.607 60.6 3.3 54 8.2
2010-11-08 09:40:12 51°10.609 2°44.67 45.8 3.5 39 8.1
2010-11-08 09:41:12 51°10.659 2°44.719 33.7 3.5 27 8
2010-11-08 09:42:12 51°10.716 2°44.751 24.5 3.8 15 7.9
2010-11-08 09:43:11 51°10.778 2°44.764 9.2 3.8 1 7.9
2010-11-08 09:44:12 51°10.845 2°44.758 7.5 3.9 358 8.1
2010-11-08 09:45:11 51°10.906 2°44.772 26.1 3.6 18 8.5
2010-11-08 09:46:11 51°10.959 2°44.807 37 3.4 28 8.8
2010-11-08 09:47:11 51°11.005 2°44.855 45.2 3.2 38 9
2010-11-08 09:48:11 51°11.041 2°44.915 59.7 3 55 9.2
2010-11-08 09:49:12 51°11.064 2°44.987 74.3 3 74 9.3
2010-11-08 09:50:11 51°11.067 2°45.058 95.1 2.7 96 9.1
2010-11-08 09:51:11 51°11.061 2°45.109 98.8 1.2 97 9
2010-11-08 09:52:12 51°11.061 2°45.129 97.3 0.4 82 8.9
2010-11-08 09:53:11 51°11.063 2°45.129 90.6 0.3 326 9
2010-11-08 09:54:11 51°11.067 2°45.12 85.9 0.6 290 9.1
2010-11-08 09:55:12 51°11.073 2°45.101 79.1 0.9 291 9.2
2010-11-08 09:56:11 51°11.082 2°45.091 58 1 23 9.2
2010-11-08 09:57:12 51°11.109 2°45.101 24.8 2.2 3 9.5
2010-11-08 09:58:11 51°11.151 2°45.075 333.7 3.9 316 9.9
2010-11-08 09:59:12 51°11.161 2°44.933 255.6 7.6 256 10.3
2010-11-08 10:00:12 51°11.126 2°44.669 258.7 12.4 259 10.5
2010-11-08 10:01:11 51°11.088 2°44.325 259.9 13.7 261 10.7
2010-11-08 10:02:12 51°11.046 2°43.959 259.5 13.8 260 11.1
2010-11-08 10:03:12 51°11.006 2°43.6 258.6 13.7 259 11.5
2010-11-08 10:04:11 51°10.966 2°43.248 259.5 13.7 260 11.7
2010-11-08 10:05:11 51°10.926 2°42.89 259.4 13.3 263 11.9
2010-11-08 10:06:12 51°10.884 2°42.527 259 13.6 260 12.2
2010-11-08 10:07:11 51°10.845 2°42.177 258.8 13.6 260 12.3
2010-11-08 10:08:11 51°10.806 2°41.825 259.2 13.5 260 12.3
2010-11-08 10:09:12 51°10.768 2°41.468 259.9 13.5 261 12.3
2010-11-08 10:10:11 51°10.73 2°41.124 259.7 13.5 260 12.3
2010-11-08 10:11:11 51°10.691 2°40.773 259.3 13.4 260 12.6
2010-11-08 10:12:12 51°10.65 2°40.418 259 13.4 260 13.3
2010-11-08 10:13:12 51°10.611 2°40.068 259.8 13.4 260 13.7
2010-11-08 10:14:12 51°10.573 2°39.717 259.6 13.5 261 14.6
2010-11-08 10:15:11 51°10.533 2°39.37 259.4 13.6 260 15.3
2010-11-08 10:16:12 51°10.491 2°39.01 259.5 13.7 260 15.8
2010-11-08 10:17:12 51°10.449 2°38.655 259.2 13.6 260 16.4
2010-11-08 10:18:12 51°10.41 2°38.302 259.2 13.5 261 17.1
2010-11-08 10:19:12 51°10.37 2°37.95 259.5 13.5 258 17.7
2010-11-08 10:20:11 51°10.332 2°37.607 259.2 13.3 261 17.9
2010-11-08 10:21:12 51°10.293 2°37.256 258.6 13.2 260 17.9
2010-11-08 10:22:11 51°10.257 2°36.919 258.7 13.1 261 17.7
2010-11-08 10:23:11 51°10.323 2°36.609 309.3 12.9 311 14
2010-11-08 10:24:12 51°10.491 2°36.424 344.9 12 348 9.7
2010-11-08 10:25:12 51°10.684 2°36.5 25.5 12.4 25 10.9
2010-11-08 10:26:12 51°10.864 2°36.653 28.5 12.2 28 11.9
2010-11-08 10:27:12 51°11.044 2°36.813 29.8 12.4 31 12.6
2010-11-08 10:28:11 51°11.234 2°36.909 10.2 12.2 9 13.2
2010-11-08 10:29:11 51°11.439 2°36.959 9.6 12.5 8 13.2
2010-11-08 10:30:11 51°11.645 2°37.008 9.2 12.6 9 12.9
2010-11-08 10:31:12 51°11.852 2°37.06 9.4 12.6 8 11.9
2010-11-08 10:32:11 51°12.054 2°37.112 9.2 12.4 8 11.3
2010-11-08 10:33:11 51°12.257 2°37.169 8.2 12.3 9 10.9
2010-11-08 10:34:12 51°12.466 2°37.218 9 12.5 9 11.2
2010-11-08 10:35:12 51°12.674 2°37.275 9.9 12.6 9 11.4
2010-11-08 10:36:12 51°12.879 2°37.335 9.3 12.6 9 11.2
2010-11-08 10:37:11 51°13.083 2°37.37 2.3 12.4 3 10.4
2010-11-08 10:38:11 51°13.288 2°37.383 1.8 12.1 4 9.6
2010-11-08 10:39:12 51°13.491 2°37.362 347 11.9 347 9.3
2010-11-08 10:40:11 51°13.677 2°37.234 334.3 13 336 18.6
2010-11-08 10:41:12 51°13.863 2°37.051 321.8 13.1 322 21.2
2010-11-08 10:42:12 51°14.028 2°36.829 319.4 13 322 17.2
2010-11-08 10:43:11 51°14.193 2°36.625 321.4 12.6 323 13
2010-11-08 10:44:12 51°14.366 2°36.422 321.9 12.8 322 10.5
2010-11-08 10:45:12 51°14.559 2°36.275 338.2 12.9 341 13.4
2010-11-08 10:46:12 51°14.764 2°36.166 339.8 12.8 342 16.5
2010-11-08 10:47:12 51°14.96 2°36.056 340.1 12.1 347 17.9
2010-11-08 10:48:11 51°15.159 2°35.971 344.8 13 345 18.2
2010-11-08 10:49:11 51°15.364 2°35.881 344.8 12.9 343 22.2
2010-11-08 10:50:11 51°15.568 2°35.803 350.5 12.4 350 26.6
2010-11-08 10:51:12 51°15.778 2°35.748 351.9 12.9 351 27.8
2010-11-08 10:52:12 51°15.987 2°35.684 349.4 12.7 348 27.5
2010-11-08 10:53:12 51°16.201 2°35.627 350.2 13.5 351 27.3
2010-11-08 10:54:11 51°16.41 2°35.571 350.2 12.7 351 27.4
2010-11-08 10:55:11 51°16.619 2°35.516 349.9 12.8 353 25.7
2010-11-08 10:56:11 51°16.829 2°35.459 352.1 12.7 355 19.3
2010-11-08 10:57:11 51°17.042 2°35.416 350.4 13.1 354 14.9
2010-11-08 10:58:11 51°17.255 2°35.374 349.3 12.9 353 11.7
2010-11-08 10:59:11 51°17.459 2°35.328 347.3 12.5 351 12.6
2010-11-08 11:00:11 51°17.655 2°35.24 331.8 12.1 330 16
2010-11-08 11:01:11 51°17.767 2°34.976 292.1 12.5 288 19
2010-11-08 11:02:11 51°17.851 2°34.671 292.8 12.5 293 24.5
2010-11-08 11:03:12 51°17.935 2°34.359 291.6 12.6 287 29
2010-11-08 11:04:12 51°18.018 2°34.053 297.1 12.7 296 29.6
2010-11-08 11:05:11 51°18.088 2°33.75 288 12.5 290 28
2010-11-08 11:06:12 51°18.167 2°33.441 285.3 11.9 292 23.1
2010-11-08 11:07:12 51°18.243 2°33.137 295.1 12.3 289 21.7
2010-11-08 11:08:11 51°18.327 2°32.845 288.3 12.4 289 25.8
2010-11-08 11:09:12 51°18.409 2°32.532 295.2 12.6 292 28
2010-11-08 11:10:11 51°18.491 2°32.236 297.2 12.6 293 30.1
2010-11-08 11:11:11 51°18.57 2°31.929 290.2 12.7 291 31.3
2010-11-08 11:12:12 51°18.628 2°31.605 284.5 12.6 289 31.4
2010-11-08 11:13:11 51°18.677 2°31.286 281.7 12.3 288 -999
2010-11-08 11:14:12 51°18.729 2°30.963 284.8 12.5 290 31.9
2010-11-08 11:15:12 51°18.778 2°30.641 283.9 12.7 281 31.8
2010-11-08 11:16:11 51°18.839 2°30.337 287.3 12.3 296 28.6
2010-11-08 11:17:11 51°18.899 2°30.035 284.9 11.5 284 19.9
2010-11-08 11:18:12 51°18.93 2°29.737 272.7 11.1 269 14.2
2010-11-08 11:19:12 51°18.945 2°29.448 271.3 10.9 279 13.4
2010-11-08 11:20:12 51°18.956 2°29.163 270.4 10.6 274 13.1
2010-11-08 11:21:12 51°18.946 2°28.882 251.8 10.4 242 23.8
2010-11-08 11:22:12 51°18.806 2°28.703 218.1 11 222 23.9
2010-11-08 11:23:11 51°18.704 2°28.463 241.3 11.5 239 30.6
2010-11-08 11:24:11 51°18.596 2°28.213 230.8 11.8 231 32.6
2010-11-08 11:25:11 51°18.473 2°27.976 230.6 11.5 232 33.8
2010-11-08 11:26:11 51°18.351 2°27.741 229 11.7 231 34
2010-11-08 11:27:11 51°18.23 2°27.502 229.9 11.5 231 34.5
2010-11-08 11:28:11 51°18.104 2°27.274 226.5 11.4 228 34.5
2010-11-08 11:29:11 51°17.972 2°27.061 225.1 11.3 225 34
2010-11-08 11:30:12 51°17.83 2°26.849 223.3 11.9 225 35
2010-11-08 11:31:12 51°17.682 2°26.656 218.6 11.5 217 33.9
2010-11-08 11:32:12 51°17.533 2°26.469 218 11.5 216 34
2010-11-08 11:33:12 51°17.378 2°26.302 214.3 11.2 213 33.8
2010-11-08 11:34:11 51°17.223 2°26.143 213.5 11.2 213 33.7
2010-11-08 11:35:12 51°17.064 2°25.979 215.5 11 214 33.3
2010-11-08 11:36:12 51°16.897 2°25.85 200 11.3 196 32.3
2010-11-08 11:37:11 51°16.726 2°25.745 216.5 11 220 29.1
2010-11-08 11:38:11 51°16.593 2°25.536 226.3 11.4 228 29.6
2010-11-08 11:39:12 51°16.463 2°25.338 216 9.8 212 29.2
2010-11-08 11:40:11 51°16.318 2°25.279 190.4 8.7 185 27
2010-11-08 11:41:12 51°16.185 2°25.272 187.4 7.3 179 23.5
2010-11-08 11:42:12 51°16.105 2°25.273 192.9 2 172 20.1
2010-11-08 11:43:12 51°16.098 2°25.28 218.9 0.5 79 19.6
2010-11-08 11:44:12 51°16.103 2°25.291 217.7 0.8 41 19.5
2010-11-08 11:45:12 51°16.116 2°25.309 223.3 1.2 52 18.7
2010-11-08 11:46:12 51°16.136 2°25.33 232.3 1.6 41 19.1
2010-11-08 11:47:12 51°16.16 2°25.357 243.1 2 37 18.7
2010-11-08 11:48:12 51°16.183 2°25.393 247.6 1.8 46 18.4
2010-11-08 11:49:12 51°16.205 2°25.43 250.1 2.1 50 17.3
2010-11-08 11:50:12 51°16.227 2°25.473 251.2 2.3 50 15.6
2010-11-08 11:51:12 51°16.248 2°25.509 249.8 1.3 46 15.6
2010-11-08 11:52:11 51°16.263 2°25.497 283.3 2 322 16.8
2010-11-08 11:53:11 51°16.306 2°25.426 277.5 4.4 287 22.7
2010-11-08 11:54:11 51°16.291 2°25.285 242.6 6.6 247 26.2
2010-11-08 11:55:11 51°16.232 2°25.119 237.7 6.9 243 28.4
2010-11-08 11:56:12 51°16.258 2°25.001 311.9 5.3 331 31.4
2010-11-08 11:57:12 51°16.339 2°24.966 336.9 4.7 358 33.5
2010-11-08 11:58:12 51°16.416 2°24.98 2 5.3 12 34.6
2010-11-08 11:59:11 51°16.503 2°25.044 31.5 6.2 34 35.5
2010-11-08 12:00:11 51°16.573 2°25.142 53.6 5.2 50 35.3
2010-11-08 12:01:11 51°16.626 2°25.252 61.7 5.1 51 35.2
2010-11-08 12:02:11 51°16.681 2°25.358 56 5 46 34.9
2010-11-08 12:03:11 51°16.738 2°25.455 42.9 5.1 42 34.9
2010-11-08 12:04:11 51°16.803 2°25.536 38.3 4.8 40 33.1
2010-11-08 12:05:12 51°16.862 2°25.613 40.5 4.6 40 34
2010-11-08 12:06:11 51°16.918 2°25.689 41.5 4.4 41 33.8
2010-11-08 12:07:12 51°16.974 2°25.766 44 4.4 41 33.8
2010-11-08 12:08:12 51°17.03 2°25.839 41.2 4.4 41 34
2010-11-08 12:09:11 51°17.086 2°25.911 37.1 4.2 37 34.7
2010-11-08 12:10:11 51°17.145 2°25.975 33.5 4.3 37 34.1
2010-11-08 12:11:12 51°17.202 2°26.037 30.7 4.1 34 34.9
2010-11-08 12:12:11 51°17.26 2°26.101 32.7 4.5 39 34.4
2010-11-08 12:13:11 51°17.319 2°26.163 33.5 4.4 38 34.3
2010-11-08 12:14:12 51°17.376 2°26.233 37.7 4.2 38 34.9
2010-11-08 12:15:12 51°17.435 2°26.301 38.4 4.3 34 35.2
2010-11-08 12:16:11 51°17.489 2°26.371 37.9 4.4 39 35.2
2010-11-08 12:17:11 51°17.544 2°26.441 40.1 4.2 37 35.9
2010-11-08 12:18:11 51°17.598 2°26.511 40.5 4.2 40 35.3
2010-11-08 12:19:11 51°17.654 2°26.582 37.6 4.2 36 35.5
2010-11-08 12:20:11 51°17.711 2°26.652 34.9 4.2 34 36.2
2010-11-08 12:21:11 51°17.767 2°26.717 34.4 4.2 34 36.2
2010-11-08 12:22:11 51°17.825 2°26.781 37.4 4.5 34 34.9
2010-11-08 12:23:12 51°17.883 2°26.85 41.1 3.8 41 35.5
2010-11-08 12:24:12 51°17.94 2°26.92 40.4 4.2 36 35.9
2010-11-08 12:25:11 51°17.995 2°26.99 41.6 4.3 39 35.6
2010-11-08 12:26:11 51°18.051 2°27.062 45.8 4.4 41 35.1
2010-11-08 12:27:11 51°18.106 2°27.137 46.9 4.3 39 35.4
2010-11-08 12:28:11 51°18.159 2°27.209 47.5 4.2 43 35.4
2010-11-08 12:29:11 51°18.212 2°27.282 51.6 4.3 42 35
2010-11-08 12:30:11 51°18.264 2°27.36 50.9 4.2 44 35.1
2010-11-08 12:31:11 51°18.318 2°27.431 50.4 4.1 37 35.2
2010-11-08 12:32:11 51°18.371 2°27.503 48.3 4.2 38 34.9
2010-11-08 12:33:12 51°18.423 2°27.577 48.2 4.2 41 35.2
2010-11-08 12:34:12 51°18.478 2°27.647 47.3 4.3 35 35.1
2010-11-08 12:35:12 51°18.534 2°27.716 46.1 4.3 35 35.2
2010-11-08 12:36:12 51°18.585 2°27.781 47.8 3.8 41 34.9
2010-11-08 12:37:11 51°18.632 2°27.845 51.2 3.8 42 35.2
2010-11-08 12:38:11 51°18.681 2°27.911 48.4 3.9 39 35.2
2010-11-08 12:39:11 51°18.732 2°27.975 49.6 3.9 40 35.1
2010-11-08 12:40:11 51°18.778 2°28.041 52.6 3.6 39 35.6
2010-11-08 12:41:12 51°18.825 2°28.106 57.4 3.7 45 35
2010-11-08 12:42:11 51°18.867 2°28.167 59.6 3.4 40 35.1
2010-11-08 12:43:11 51°18.909 2°28.223 60.9 3.2 40 35.9
2010-11-08 12:44:11 51°18.952 2°28.279 59.5 3.3 42 34.9
2010-11-08 12:45:11 51°18.994 2°28.336 63.5 3.4 38 35.6
2010-11-08 12:46:11 51°19.037 2°28.4 62.9 3.5 45 35.4
2010-11-08 12:47:11 51°19.081 2°28.464 62.5 3.5 43 35.1
2010-11-08 12:48:11 51°19.122 2°28.523 62.7 3.1 38 34.2
2010-11-08 12:49:11 51°19.162 2°28.565 63.8 2.6 29 34
2010-11-08 12:50:11 51°19.199 2°28.591 47.5 2.4 20 34.4
2010-11-08 12:51:12 51°19.235 2°28.614 38.6 2.3 16 34.8
2010-11-08 12:52:12 51°19.275 2°28.649 37.1 4.2 34 35.2
2010-11-08 12:53:11 51°19.37 2°28.786 51 10.3 48 35.3
2010-11-08 12:54:11 51°19.488 2°29.049 63.2 13.5 60 33.7
2010-11-08 12:55:11 51°19.58 2°29.392 74.4 14.5 72 25.2
2010-11-08 12:56:11 51°19.653 2°29.753 75 14.3 72 16.9
2010-11-08 12:57:11 51°19.725 2°30.129 72.4 15 74 15.5
2010-11-08 12:58:11 51°19.792 2°30.506 76.7 15.2 74 18.4
2010-11-08 12:59:12 51°19.867 2°30.882 72.8 14 71 23.2
2010-11-08 13:00:11 51°19.941 2°31.233 71.9 14.1 68 28.6
2010-11-08 13:01:12 51°20.021 2°31.587 74.3 13.8 70 32.7
2010-11-08 13:02:11 51°20.07 2°31.937 88.1 13.6 84 32.6
2010-11-08 13:03:11 51°20.09 2°32.299 89.3 13.9 85 33.6
2010-11-08 13:04:11 51°20.106 2°32.66 97.4 13.4 94 33.3
2010-11-08 13:05:11 51°20.098 2°33.016 93.6 14.1 84 33.7
2010-11-08 13:06:11 51°20.118 2°33.383 91.5 13.9 81 33.8
2010-11-08 13:07:11 51°20.149 2°33.746 91.2 13.9 83 36.2
2010-11-08 13:08:11 51°20.171 2°34.115 95.8 13.6 92 34.7
2010-11-08 13:09:11 51°20.179 2°34.483 96.2 14.2 90 31.3
2010-11-08 13:10:11 51°20.185 2°34.848 95.2 13.8 91 28.5
2010-11-08 13:11:11 51°20.189 2°35.209 91.2 13.6 87 23
2010-11-08 13:12:11 51°20.192 2°35.573 95.7 13.8 91 20.2
2010-11-08 13:13:11 51°20.173 2°35.938 101.1 14 98 21.7
2010-11-08 13:14:11 51°20.15 2°36.295 100.5 13.5 93 24.2
2010-11-08 13:15:11 51°20.125 2°36.651 101 13.4 96 25
2010-11-08 13:16:11 51°20.102 2°37.01 99.6 13.7 95 22.7
2010-11-08 13:17:11 51°20.079 2°37.372 99.7 13.4 97 24.7
2010-11-08 13:18:11 51°20.059 2°37.731 98.1 13.6 95 25
2010-11-08 13:19:11 51°20.04 2°38.087 99.2 13.5 94 25.8
2010-11-08 13:20:11 51°20.017 2°38.445 99.1 13.5 98 26.3
2010-11-08 13:21:11 51°19.996 2°38.802 99.7 13.4 98 27.4
2010-11-08 13:22:11 51°19.975 2°39.156 100.5 13.2 95 27.7
2010-11-08 13:23:11 51°19.957 2°39.512 99.3 13.6 93 31.3
2010-11-08 13:24:11 51°19.936 2°39.869 100 13.5 97 31.2
2010-11-08 13:25:11 51°19.918 2°40.227 99.5 13.6 93 31.1
2010-11-08 13:26:11 51°19.901 2°40.587 100.7 13.6 96 27.1
2010-11-08 13:27:11 51°19.882 2°40.955 98.9 13.9 94 24.9
2010-11-08 13:28:11 51°19.859 2°41.317 99.9 13.6 95 20.1
2010-11-08 13:29:11 51°19.838 2°41.679 99 13.7 95 24.2
2010-11-08 13:30:11 51°19.816 2°42.039 98.7 13.6 98 25.5
2010-11-08 13:31:11 51°19.793 2°42.399 100.3 13.7 98 27.4
2010-11-08 13:32:11 51°19.77 2°42.756 98.6 13.6 95 28.3
2010-11-08 13:33:11 51°19.747 2°43.112 99.7 13.4 94 28.7
2010-11-08 13:34:11 51°19.722 2°43.468 99.5 13.4 96 27.9
2010-11-08 13:35:11 51°19.702 2°43.824 99.5 13.5 94 27.5
2010-11-08 13:36:11 51°19.683 2°44.181 98.8 13.4 95 26.5
2010-11-08 13:37:11 51°19.667 2°44.538 97.3 13.6 93 25.4
2010-11-08 13:38:11 51°19.65 2°44.901 100 13.9 95 24.3
2010-11-08 13:39:11 51°19.632 2°45.267 99.5 13.7 95 17.6
2010-11-08 13:40:11 51°19.613 2°45.637 98.8 13.9 96 15.4
2010-11-08 13:41:11 51°19.592 2°46.002 99.1 13.7 97 18.7
2010-11-08 13:42:11 51°19.571 2°46.367 99.7 13.6 95 19.9
2010-11-08 13:43:11 51°19.549 2°46.729 99 13.6 95 24.2
2010-11-08 13:44:11 51°19.507 2°47.078 116.5 13.1 114 24.3
2010-11-08 13:45:11 51°19.391 2°47.367 130.9 12.9 126 24.4
2010-11-08 13:46:11 51°19.272 2°47.654 127.7 12.9 125 23.5
2010-11-08 13:47:11 51°19.16 2°47.948 126.5 13 120 21.7
2010-11-08 13:48:11 51°19.049 2°48.244 126 12.9 121 19.7
2010-11-08 13:49:11 51°18.941 2°48.545 125.7 13 119 16.8
2010-11-08 13:50:11 51°18.83 2°48.842 126.2 12.9 122 14.9
2010-11-08 13:51:11 51°18.719 2°49.137 125.3 13 121 13.9
2010-11-08 13:52:11 51°18.605 2°49.431 126.2 13 123 13.7
2010-11-08 13:53:11 51°18.494 2°49.723 125 12.7 122 15.9
2010-11-08 13:54:11 51°18.382 2°50.015 124.8 12.7 121 17.1
2010-11-08 13:55:11 51°18.273 2°50.304 125.5 12.9 122 17
2010-11-08 13:56:11 51°18.165 2°50.596 125.7 12.9 121 16.2
2010-11-08 13:57:11 51°18.058 2°50.886 124.9 12.6 120 15.6
2010-11-08 13:58:11 51°17.95 2°51.175 125.1 12.8 121 14.1
2010-11-08 13:59:11 51°17.835 2°51.453 129.9 12.7 125 13.2
2010-11-08 14:00:11 51°17.695 2°51.694 139.7 12.4 135 12.8
2010-11-08 14:01:11 51°17.543 2°51.908 146.4 11.8 142 13.2
2010-11-08 14:02:11 51°17.371 2°52.066 157.6 11.7 153 14.1
2010-11-08 14:03:11 51°17.194 2°52.2 157.6 11.6 155 14.2
2010-11-08 14:04:11 51°17.025 2°52.365 151 12.1 147 12.9
2010-11-08 14:05:11 51°16.856 2°52.542 150.3 12.2 147 12.8
2010-11-08 14:06:11 51°16.687 2°52.724 151.1 12.5 148 13.6
2010-11-08 14:07:11 51°16.513 2°52.898 153.2 12.4 147 14.6
2010-11-08 14:08:11 51°16.34 2°53.065 155.4 12 150 14.8
2010-11-08 14:09:11 51°16.162 2°53.22 156.9 12.1 152 14.6
2010-11-08 14:10:11 51°15.984 2°53.377 155.5 12.2 152 14.3
2010-11-08 14:11:11 51°15.809 2°53.537 152.6 12.2 148 14.4
2010-11-08 14:12:11 51°15.637 2°53.713 151.3 12.3 149 14.1
2010-11-08 14:13:11 51°15.466 2°53.889 150 12.1 147 13.7
2010-11-08 14:14:11 51°15.295 2°54.071 149.6 12.4 147 13.3
2010-11-08 14:15:11 51°15.128 2°54.26 146.4 12.5 143 12.9
2010-11-08 14:16:11 51°14.965 2°54.467 143.1 12.4 137 13.7
2010-11-08 14:17:11 51°14.81 2°54.689 142.3 12.6 137 14.3
2010-11-08 14:18:11 51°14.657 2°54.895 147.5 11.4 142 14.3
2010-11-08 14:19:11 51°14.519 2°55.055 150 9.3 149 13.9
2010-11-08 14:20:11 51°14.396 2°55.167 147.2 7.9 149 13.4
2010-11-08 14:21:11 51°14.28 2°55.274 149.2 8.1 152 13.5
2010-11-08 14:22:12 51°14.162 2°55.374 149.8 7.8 153 12.8
2010-11-08 14:23:11 51°14.044 2°55.464 153 7.9 155 12.2
2010-11-08 14:24:11 51°13.95 2°55.532 153.1 4.9 154 13.9
2010-11-08 14:25:11 51°13.886 2°55.577 152.9 3.7 156 13.3
2010-11-08 14:26:11 51°13.823 2°55.625 152 4.7 152 14.1
2010-11-08 14:27:11 51°13.761 2°55.707 132.4 5 133 13.2
2010-11-08 14:28:11 51°13.711 2°55.805 126.5 4.5 126 14.8
2010-11-08 14:29:11 51°13.674 2°55.899 113 3.9 114 11.8